Terminal Aerodrome Forecast
Issued by NWS

Home | Current Version | Previous Version | Text Only | Print | Product List | Glossary On
Versions: 1 2 3 4 5 6 7 8 9 10 11 12 13
444
FTPA31 PHFO 241340 AAB
TAFHKO
TAF AMD
PHKO 241340Z 2414/2512 12007KT P6SM FEW035 SCT060 BKN200
      TEMPO 2413/2416 -SHRA BKN025 BKN045
     FM242000 22010KT P6SM FEW060 SCT200
     FM250400 17007KT P6SM FEW060 BKN200=

USA.gov is the U.S. government's official web portal to all federal, state and local government web resources and services.